Time;durP1;ratioP1;P1;durP2;ratioP2;P2;SDS_P1;SDS_P2;PMS_P1;PMS_P2;Temp;Humidity;BMP_temperature;BMP_pressure;BME280_temperature;BME280_humidity;BME280_pressure;Samples;Min_cycle;Max_cycle;Signal;HPM_P1;HPM_P2
2021/04/12 00:01:46;;;;;;;6.63;3.17;;;3.60;99.90;;;;;;5112079;28;20184;-79
2021/04/12 00:04:18;;;;;;;6.93;3.40;;;3.50;99.90;;;;;;5112478;28;20177;-78
2021/04/12 00:07:07;;;;;;;3.63;3.33;;;3.40;99.90;;;;;;5114543;28;20161;-78
2021/04/12 00:10:17;;;;;;;5.63;3.23;;;3.50;99.90;;;;;;5117412;28;20170;-79
2021/04/12 00:13:15;;;;;;;6.23;3.73;;;3.60;99.90;;;;;;5115476;28;20660;-78
2021/04/12 00:15:52;;;;;;;5.70;3.50;;;3.60;99.90;;;;;;5093077;28;20177;-78
2021/04/12 00:18:25;;;;;;;6.70;3.60;;;3.60;99.90;;;;;;5117399;28;20205;-78
2021/04/12 00:20:56;;;;;;;3.83;3.47;;;3.60;99.90;;;;;;5116450;28;20153;-78
2021/04/12 00:23:30;;;;;;;8.73;3.53;;;3.60;99.90;;;;;;5116438;27;20154;-78
2021/04/12 00:26:36;;;;;;;4.07;3.53;;;3.60;99.90;;;;;;5115787;27;20172;-78
2021/04/12 00:29:15;;;;;;;14.80;3.53;;;3.70;99.90;;;;;;5113913;27;20545;-78
2021/04/12 00:31:54;;;;;;;5.73;3.70;;;3.70;99.90;;;;;;5116774;28;20512;-78
2021/04/12 00:34:30;;;;;;;5.50;3.70;;;3.70;99.90;;;;;;5117453;28;20626;-78
2021/04/12 00:36:58;;;;;;;6.57;3.80;;;3.70;99.90;;;;;;5116266;28;20193;-78
2021/04/12 00:39:40;;;;;;;3.60;3.40;;;3.70;99.90;;;;;;5116184;28;20546;-78
2021/04/12 00:42:43;;;;;;;12.60;3.87;;;3.60;99.90;;;;;;5117137;28;20150;-78
2021/04/12 00:45:11;;;;;;;5.27;3.57;;;3.60;99.90;;;;;;5116846;27;20169;-78
2021/04/12 00:47:49;;;;;;;8.57;4.17;;;3.60;99.90;;;;;;5115990;28;20173;-78
2021/04/12 00:50:42;;;;;;;7.43;4.07;;;3.60;99.90;;;;;;5116887;28;20155;-78
2021/04/12 00:53:26;;;;;;;6.27;3.80;;;3.70;99.90;;;;;;5117140;28;20154;-78
2021/04/12 00:56:01;;;;;;;7.50;3.83;;;3.70;99.90;;;;;;5115700;28;20173;-78
2021/04/12 00:58:51;;;;;;;6.80;4.10;;;3.60;99.90;;;;;;5115588;28;20227;-78
2021/04/12 01:01:36;;;;;;;3.93;3.30;;;3.60;99.90;;;;;;5116859;28;20609;-78
2021/04/12 01:04:28;;;;;;;5.00;4.17;;;3.60;99.90;;;;;;5116669;28;20165;-78
2021/04/12 01:07:15;;;;;;;5.90;4.00;;;3.50;99.90;;;;;;5115821;28;20169;-78
2021/04/12 01:10:19;;;;;;;5.47;4.17;;;3.50;99.90;;;;;;5114869;28;20614;-78
2021/04/12 01:12:59;;;;;;;4.17;3.63;;;3.60;99.90;;;;;;5094925;28;20203;-78
2021/04/12 01:15:47;;;;;;;7.03;3.80;;;3.50;99.90;;;;;;5096218;28;20161;-78
2021/04/12 01:18:32;;;;;;;5.80;3.90;;;3.50;99.90;;;;;;5095623;28;20618;-78
2021/04/12 01:21:13;;;;;;;4.97;3.23;;;3.40;99.90;;;;;;5099993;28;20158;-78
2021/04/12 01:24:07;;;;;;;4.40;3.57;;;3.40;99.90;;;;;;5115470;28;20172;-78
2021/04/12 01:26:57;;;;;;;4.40;3.30;;;3.30;99.90;;;;;;5114661;28;20178;-78
2021/04/12 01:30:00;;;;;;;11.03;3.80;;;3.20;99.90;;;;;;5116035;28;20614;-78
2021/04/12 01:33:02;;;;;;;3.60;3.27;;;3.20;99.90;;;;;;5115958;28;20188;-78
2021/04/12 01:35:54;;;;;;;4.63;3.80;;;3.30;99.90;;;;;;5116072;28;20156;-79
2021/04/12 01:38:37;;;;;;;4.43;4.03;;;3.30;99.90;;;;;;5116311;28;20220;-78
2021/04/12 01:41:22;;;;;;;12.67;3.70;;;3.40;99.90;;;;;;5113994;28;20223;-78
2021/04/12 01:44:05;;;;;;;8.73;3.50;;;3.30;99.90;;;;;;5114715;28;20166;-78
2021/04/12 01:46:52;;;;;;;6.57;3.53;;;3.30;99.90;;;;;;5115882;28;20150;-78
2021/04/12 01:49:38;;;;;;;10.33;3.60;;;3.30;99.90;;;;;;5115355;28;20170;-78
2021/04/12 01:52:42;;;;;;;9.73;3.57;;;3.20;99.90;;;;;;5116165;28;20177;-78
2021/04/12 01:55:31;;;;;;;6.53;3.60;;;3.30;99.90;;;;;;5114485;28;20168;-78
2021/04/12 01:58:24;;;;;;;4.43;3.37;;;3.30;99.90;;;;;;5114111;28;20602;-78
2021/04/12 02:01:22;;;;;;;9.80;3.60;;;3.30;99.90;;;;;;5115714;28;20244;-78
2021/04/12 02:04:05;;;;;;;8.20;3.40;;;3.20;99.90;;;;;;5102489;28;20185;-78
2021/04/12 02:07:04;;;;;;;3.60;2.90;;;3.20;99.90;;;;;;5115288;28;20166;-78
2021/04/12 02:09:52;;;;;;;3.57;3.27;;;3.30;99.90;;;;;;5115063;28;20180;-78
2021/04/12 02:12:43;;;;;;;7.37;3.50;;;3.30;99.90;;;;;;5115691;28;20149;-78
2021/04/12 02:15:29;;;;;;;9.03;3.40;;;3.30;99.90;;;;;;5113367;28;20187;-78
2021/04/12 02:18:06;;;;;;;4.53;3.23;;;3.30;99.90;;;;;;5113802;28;20185;-78
2021/04/12 02:20:54;;;;;;;4.13;3.40;;;3.30;99.90;;;;;;5115315;28;20202;-78
2021/04/12 02:23:31;;;;;;;7.27;3.33;;;3.30;99.90;;;;;;5115207;28;20166;-78
2021/04/12 02:26:00;;;;;;;8.67;3.87;;;3.30;99.90;;;;;;5113993;28;20529;-78
2021/04/12 02:29:14;;;;;;;4.50;3.00;;;3.30;99.90;;;;;;5114688;28;20240;-78
2021/04/12 02:31:45;;;;;;;5.97;3.17;;;3.40;99.90;;;;;;5051624;28;20214;-78
2021/04/12 02:34:25;;;;;;;4.63;3.30;;;3.60;99.90;;;;;;5035274;28;20670;-78
2021/04/12 02:37:30;;;;;;;6.60;3.37;;;3.70;99.90;;;;;;5080265;28;20197;-78
2021/04/12 02:40:01;;;;;;;10.17;3.77;;;4.00;99.90;;;;;;5059351;28;20216;-78
2021/04/12 02:42:39;;;;;;;8.57;4.50;;;4.10;99.90;;;;;;5093311;28;20570;-78
2021/04/12 02:45:21;;;;;;;6.40;3.67;;;4.20;99.90;;;;;;5094320;28;20158;-78
2021/04/12 02:48:21;;;;;;;5.63;3.30;;;4.30;99.90;;;;;;5099128;28;20172;-78
2021/04/12 02:51:01;;;;;;;5.57;3.90;;;4.30;99.90;;;;;;5114569;28;20154;-78
2021/04/12 02:53:33;;;;;;;4.83;3.90;;;4.40;99.90;;;;;;5114666;28;20164;-78
2021/04/12 02:56:07;;;;;;;7.93;3.37;;;4.50;99.90;;;;;;5114337;28;20671;-78
2021/04/12 02:58:59;;;;;;;4.77;3.03;;;4.60;99.90;;;;;;5112650;28;20679;-78
2021/04/12 03:01:37;;;;;;;5.00;3.13;;;4.60;99.90;;;;;;5090356;28;20197;-78
2021/04/12 03:04:13;;;;;;;7.53;3.63;;;4.60;99.90;;;;;;5114563;28;20192;-78
2021/04/12 03:07:08;;;;;;;5.00;3.13;;;4.40;99.90;;;;;;5112900;28;20193;-78
2021/04/12 03:09:45;;;;;;;7.73;3.13;;;4.30;99.90;;;;;;5113296;28;20161;-78
2021/04/12 03:12:38;;;;;;;4.60;2.90;;;4.10;99.90;;;;;;5112735;28;20161;-77
2021/04/12 03:15:35;;;;;;;5.20;3.03;;;3.80;99.90;;;;;;5136607;28;20641;-76
2021/04/12 03:18:13;;;;;;;6.00;3.80;;;3.60;99.90;;;;;;5136990;28;20188;-78
2021/04/12 03:21:16;;;;;;;3.50;3.20;;;3.40;99.90;;;;;;5137017;28;20244;-77
2021/04/12 03:24:02;;;;;;;4.80;3.50;;;3.30;99.90;;;;;;5115086;28;20161;-78
2021/04/12 03:26:36;;;;;;;5.67;3.30;;;3.40;99.90;;;;;;5113796;27;20181;-78
2021/04/12 03:29:46;;;;;;;3.50;3.20;;;3.30;99.90;;;;;;5114464;28;20169;-78
2021/04/12 03:32:40;;;;;;;10.90;3.70;;;3.30;99.90;;;;;;5089945;28;20220;-78
2021/04/12 03:35:39;;;;;;;4.43;3.80;;;3.40;99.90;;;;;;5112831;28;20253;-78
2021/04/12 03:38:49;;;;;;;4.80;3.50;;;3.40;99.90;;;;;;5126875;28;20236;-78
2021/04/12 03:41:40;;;;;;;5.73;4.03;;;3.40;99.90;;;;;;5059087;28;20186;-78
2021/04/12 03:44:33;;;;;;;6.03;3.87;;;3.40;99.90;;;;;;5139066;27;20217;-77
2021/04/12 03:47:20;;;;;;;8.53;3.80;;;3.40;99.90;;;;;;5121304;27;20161;-78
2021/04/12 03:49:55;;;;;;;4.87;3.87;;;3.40;99.90;;;;;;5119174;28;20176;-78
2021/04/12 03:52:49;;;;;;;4.73;3.70;;;3.40;99.90;;;;;;5120641;28;20167;-78
2021/04/12 03:55:39;;;;;;;4.33;3.40;;;3.30;99.90;;;;;;5120611;28;20629;-78
2021/04/12 03:58:31;;;;;;;6.90;4.17;;;3.30;99.90;;;;;;5120055;27;20192;-78
2021/04/12 04:01:14;;;;;;;7.80;3.87;;;3.20;99.90;;;;;;5119424;28;20630;-78
2021/04/12 04:04:04;;;;;;;5.30;3.50;;;3.20;99.90;;;;;;5116494;28;20185;-78
2021/04/12 04:06:51;;;;;;;4.50;3.87;;;3.20;99.90;;;;;;5120114;28;20363;-78
2021/04/12 04:09:33;;;;;;;4.50;4.03;;;3.20;99.90;;;;;;5119453;28;20235;-78
2021/04/12 04:12:04;;;;;;;5.73;3.93;;;3.20;99.90;;;;;;5120549;28;20146;-78
2021/04/12 04:14:43;;;;;;;5.63;4.10;;;3.20;99.90;;;;;;5119106;28;20219;-78
2021/04/12 04:17:27;;;;;;;6.37;4.23;;;3.10;99.90;;;;;;5119253;28;20165;-77
2021/04/12 04:19:58;;;;;;;6.73;4.57;;;3.10;99.90;;;;;;5120260;27;20270;-78
2021/04/12 04:22:58;;;;;;;6.43;4.07;;;3.20;99.90;;;;;;5118888;28;20173;-79
2021/04/12 04:25:29;;;;;;;7.50;3.83;;;3.30;99.90;;;;;;5120579;28;20167;-78
2021/04/12 04:28:16;;;;;;;6.03;4.00;;;3.40;99.90;;;;;;5119069;28;20203;-78
2021/04/12 04:31:13;;;;;;;4.90;4.40;;;3.60;99.90;;;;;;5118924;28;20196;-78
2021/04/12 04:34:05;;;;;;;5.63;4.33;;;3.80;99.90;;;;;;5118877;28;20547;-78
2021/04/12 04:36:57;;;;;;;6.43;3.67;;;3.90;99.90;;;;;;5118622;28;20165;-78
2021/04/12 04:39:57;;;;;;;7.50;4.30;;;3.90;99.90;;;;;;5118794;28;20189;-78
2021/04/12 04:42:47;;;;;;;5.10;4.60;;;4.00;99.90;;;;;;5118925;28;20623;-78
2021/04/12 04:45:33;;;;;;;10.23;4.17;;;4.10;99.90;;;;;;5119946;28;20196;-78
2021/04/12 04:48:10;;;;;;;8.23;4.10;;;4.00;99.90;;;;;;5120176;28;20222;-79
2021/04/12 04:50:47;;;;;;;6.07;4.57;;;3.80;99.90;;;;;;5120027;28;20161;-79
2021/04/12 04:53:40;;;;;;;4.93;3.80;;;3.70;99.90;;;;;;5116182;28;20244;-78
2021/04/12 04:56:29;;;;;;;4.37;3.80;;;3.80;99.90;;;;;;5116271;28;20165;-78
2021/04/12 04:59:28;;;;;;;8.63;4.00;;;3.60;99.90;;;;;;5116776;28;20177;-77
2021/04/12 05:02:17;;;;;;;7.87;4.20;;;3.50;99.90;;;;;;5115215;28;20180;-78
2021/04/12 05:05:03;;;;;;;7.33;4.93;;;3.50;99.90;;;;;;5115259;28;20172;-78
2021/04/12 05:07:54;;;;;;;6.53;4.03;;;3.70;99.90;;;;;;5115090;28;20228;-78
2021/04/12 05:10:53;;;;;;;4.50;4.10;;;3.80;99.90;;;;;;5114876;28;20182;-78
2021/04/12 05:13:48;;;;;;;4.90;4.50;;;4.00;99.90;;;;;;5116117;28;20177;-78
2021/04/12 05:16:29;;;;;;;4.77;4.27;;;4.20;99.90;;;;;;5102975;28;20276;-78
2021/04/12 05:19:25;;;;;;;4.50;4.10;;;4.20;99.90;;;;;;5116366;28;20181;-78
2021/04/12 05:22:28;;;;;;;7.00;4.23;;;4.20;99.90;;;;;;5115227;28;20162;-78
2021/04/12 05:25:20;;;;;;;4.97;4.07;;;4.30;99.90;;;;;;5116396;28;20165;-78
2021/04/12 05:28:19;;;;;;;7.70;4.00;;;4.40;99.90;;;;;;5115104;28;20176;-78
2021/04/12 05:30:50;;;;;;;14.40;3.77;;;4.60;99.90;;;;;;5115325;28;20184;-78
2021/04/12 05:33:38;;;;;;;5.37;4.57;;;4.80;99.90;;;;;;5114615;28;20516;-78
2021/04/12 05:36:31;;;;;;;5.67;3.77;;;4.90;99.90;;;;;;5114873;28;20161;-78
2021/04/12 05:39:25;;;;;;;7.03;3.70;;;5.10;99.90;;;;;;5095651;28;20281;-78
2021/04/12 05:42:10;;;;;;;9.60;4.00;;;5.00;99.90;;;;;;5094394;28;20235;-78
2021/04/12 05:44:51;;;;;;;5.10;3.77;;;5.00;99.90;;;;;;5094422;28;20509;-79
2021/04/12 05:47:41;;;;;;;4.30;3.20;;;5.10;99.90;;;;;;5116061;28;20157;-78
2021/04/12 05:50:24;;;;;;;3.57;3.27;;;5.20;99.90;;;;;;5115378;27;20256;-78
2021/04/12 05:53:08;;;;;;;6.27;3.90;;;5.20;99.90;;;;;;5114614;28;20165;-78
2021/04/12 05:55:37;;;;;;;6.80;3.30;;;5.30;99.90;;;;;;5114404;28;20256;-77
2021/04/12 05:58:21;;;;;;;4.00;3.43;;;5.30;99.90;;;;;;5115638;28;20212;-78
2021/04/12 06:00:56;;;;;;;19.27;5.73;;;5.40;99.90;;;;;;5114586;28;20176;-78
2021/04/12 06:04:10;;;;;;;11.50;7.07;;;5.50;99.90;;;;;;5113944;28;20169;-78
2021/04/12 06:06:35;;;;;;;5.93;4.23;;;5.80;99.90;;;;;;5106874;28;20237;-78
2021/04/12 06:09:20;;;;;;;4.27;3.87;;;6.00;99.90;;;;;;5115812;28;20612;-78
2021/04/12 06:11:51;;;;;;;4.30;3.67;;;5.90;99.90;;;;;;5114218;28;20195;-78
2021/04/12 06:14:53;;;;;;;10.13;4.57;;;6.00;99.90;;;;;;5114441;28;20554;-78
2021/04/12 06:17:36;;;;;;;7.87;3.87;;;6.10;99.90;;;;;;5094728;28;20173;-78
2021/04/12 06:20:14;;;;;;;8.87;3.73;;;6.30;99.90;;;;;;5113893;28;20181;-79
2021/04/12 06:23:05;;;;;;;8.83;4.43;;;6.40;99.90;;;;;;5115351;28;20177;-79
2021/04/12 06:25:37;;;;;;;7.70;3.40;;;6.40;99.90;;;;;;5114665;28;20616;-78
2021/04/12 06:28:22;;;;;;;9.40;4.03;;;6.50;99.90;;;;;;5113871;28;20628;-79
2021/04/12 06:31:22;;;;;;;6.37;4.97;;;6.40;99.90;;;;;;5114564;28;20620;-78
2021/04/12 06:34:13;;;;;;;5.57;3.77;;;6.50;99.90;;;;;;5115137;28;20177;-78
2021/04/12 06:37:10;;;;;;;11.20;3.90;;;6.50;99.90;;;;;;5114268;27;20180;-79
2021/04/12 06:39:42;;;;;;;10.93;4.20;;;6.50;99.90;;;;;;5114548;28;20196;-78
2021/04/12 06:42:10;;;;;;;9.83;3.57;;;6.50;99.90;;;;;;5113389;28;20165;-78
2021/04/12 06:45:09;;;;;;;6.10;3.50;;;6.50;99.90;;;;;;5114582;28;20216;-77
2021/04/12 06:47:56;;;;;;;6.20;3.17;;;6.60;99.90;;;;;;5094190;28;20606;-78
2021/04/12 06:50:31;;;;;;;5.97;3.67;;;6.70;99.90;;;;;;5092818;28;20215;-77
2021/04/12 06:53:34;;;;;;;3.63;3.10;;;6.90;99.90;;;;;;5094061;28;20172;-78
2021/04/12 06:55:59;;;;;;;4.17;3.53;;;7.00;99.90;;;;;;5103777;28;20652;-78
2021/04/12 06:58:40;;;;;;;7.27;3.13;;;7.10;99.90;;;;;;5113038;28;20197;-78
2021/04/12 07:01:24;;;;;;;7.37;3.50;;;7.20;99.90;;;;;;5112989;28;20169;-78
2021/04/12 07:04:04;;;;;;;5.80;3.50;;;7.40;99.90;;;;;;5113110;28;20186;-78
2021/04/12 07:06:57;;;;;;;5.57;2.67;;;8.50;99.90;;;;;;5116064;27;20177;-78
2021/04/12 07:10:00;;;;;;;4.63;2.72;;;11.20;99.90;;;;;;5092701;28;20177;-78
2021/04/12 07:12:59;;;;;;;10.40;2.70;;;14.40;99.90;;;;;;5092618;28;20585;-78
2021/04/12 07:15:30;;;;;;;3.15;2.70;;;17.10;99.90;;;;;;5097766;28;20525;-78
2021/04/12 07:18:02;;;;;;;9.25;3.05;;;17.40;99.90;;;;;;5112685;28;20244;-78
2021/04/12 07:20:38;;;;;;;4.72;2.20;;;16.90;99.90;;;;;;5112093;28;20521;-78
2021/04/12 07:23:28;;;;;;;5.28;2.33;;;18.20;99.90;;;;;;5107488;28;20157;-78
2021/04/12 07:26:18;;;;;;;3.33;2.00;;;19.60;99.90;;;;;;5113944;28;20168;-78
2021/04/12 07:29:07;;;;;;;6.55;1.67;;;20.60;99.90;;;;;;5114637;28;20164;-78
2021/04/12 07:32:10;;;;;;;4.80;1.65;;;19.80;99.90;;;;;;5081925;28;20215;-79
2021/04/12 07:34:54;;;;;;;4.75;1.75;;;19.50;99.90;;;;;;5110755;28;20188;-79
2021/04/12 07:37:30;;;;;;;3.97;1.30;;;20.50;98.40;;;;;;5105626;28;20173;-79
2021/04/12 07:40:33;;;;;;;2.63;1.20;;;21.20;97.50;;;;;;5108344;28;20190;-79
2021/04/12 07:43:17;;;;;;;2.03;1.42;;;22.40;95.10;;;;;;5110047;28;20177;-79
2021/04/12 07:46:16;;;;;;;3.35;1.10;;;22.20;91.90;;;;;;5103203;28;20185;-78
2021/04/12 07:49:09;;;;;;;1.15;0.95;;;22.60;93.00;;;;;;5112578;28;20174;-80
2021/04/12 07:52:12;;;;;;;3.10;1.65;;;23.90;92.30;;;;;;5110805;28;20260;-79
2021/04/12 07:55:02;;;;;;;1.92;1.20;;;25.00;87.30;;;;;;5110358;28;20287;-79
2021/04/12 07:57:49;;;;;;;1.20;1.10;;;24.30;82.30;;;;;;5107313;28;20307;-79
2021/04/12 08:00:52;;;;;;;1.20;1.00;;;23.40;86.90;;;;;;5097924;28;20315;-78
2021/04/12 08:03:27;;;;;;;1.90;0.85;;;24.00;84.60;;;;;;5093462;28;20575;-79
2021/04/12 08:06:23;;;;;;;1.75;1.00;;;24.40;82.80;;;;;;5098396;28;20268;-78
2021/04/12 08:09:30;;;;;;;0.63;0.63;;;24.90;78.30;;;;;;5110058;28;20542;-78
2021/04/12 08:12:46;;;;;;;0.70;0.70;;;25.20;75.00;;;;;;5100176;28;20668;-76
2021/04/12 08:15:29;;;;;;;1.92;1.20;;;23.70;75.40;;;;;;5054991;28;20189;-77
2021/04/12 08:18:24;;;;;;;2.40;0.90;;;25.20;75.50;;;;;;5094214;28;20297;-77
2021/04/12 08:21:17;;;;;;;1.52;0.90;;;25.00;72.40;;;;;;5108328;28;20269;-76
2021/04/12 08:24:26;;;;;;;1.38;0.93;;;25.30;72.70;;;;;;5111418;28;20185;-77
2021/04/12 08:27:19;;;;;;;1.73;1.02;;;25.30;70.50;;;;;;5106173;28;20170;-77
2021/04/12 08:30:28;;;;;;;3.40;1.10;;;25.30;72.10;;;;;;5102442;28;20670;-77
2021/04/12 08:33:20;;;;;;;2.63;1.20;;;24.80;72.20;;;;;;5114792;28;20212;-75
2021/04/12 08:36:11;;;;;;;1.85;0.80;;;23.20;71.90;;;;;;5109180;28;20177;-76
2021/04/12 08:38:58;;;;;;;5.03;1.10;;;24.20;72.70;;;;;;5147123;27;20194;-76
2021/04/12 08:41:32;;;;;;;1.95;0.93;;;24.30;72.50;;;;;;5117333;28;20188;-76
2021/04/12 08:44:14;;;;;;;2.72;0.98;;;24.30;73.30;;;;;;5119762;27;20164;-78
2021/04/12 08:47:03;;;;;;;1.70;0.88;;;23.70;74.00;;;;;;5112315;28;20158;-78
2021/04/12 08:49:54;;;;;;;5.60;1.30;;;24.20;74.40;;;;;;5105898;28;20193;-78
2021/04/12 08:52:44;;;;;;;4.90;1.13;;;25.10;72.00;;;;;;5111414;28;20209;-78
2021/04/12 08:55:46;;;;;;;2.15;0.90;;;24.30;71.40;;;;;;5115487;28;20378;-78
2021/04/12 08:58:49;;;;;;;3.47;1.20;;;25.10;73.60;;;;;;5113724;28;20721;-77
2021/04/12 09:01:24;;;;;;;3.15;1.38;;;24.90;70.70;;;;;;5100633;28;20261;-76
2021/04/12 09:04:27;;;;;;;3.25;1.15;;;25.80;73.70;;;;;;5098825;28;20192;-77
2021/04/12 09:07:13;;;;;;;3.20;1.50;;;26.10;70.50;;;;;;5105234;28;20178;-77
2021/04/12 09:10:11;;;;;;;3.53;1.48;;;24.20;70.90;;;;;;5102889;28;20173;-77
2021/04/12 09:12:51;;;;;;;3.42;1.30;;;23.20;77.00;;;;;;5074852;28;20194;-79
2021/04/12 09:15:42;;;;;;;3.60;1.58;;;25.60;73.30;;;;;;5109502;28;20231;-78
2021/04/12 09:18:22;;;;;;;3.05;1.38;;;24.30;70.10;;;;;;5116455;28;20193;-79
2021/04/12 09:21:13;;;;;;;4.30;1.38;;;22.60;74.70;;;;;;5108812;28;20178;-78
2021/04/12 09:24:09;;;;;;;6.05;1.77;;;21.70;73.30;;;;;;5113960;28;20531;-79
2021/04/12 09:27:22;;;;;;;3.13;1.42;;;19.80;79.00;;;;;;5115134;28;20166;-77
2021/04/12 09:30:10;;;;;;;3.13;1.35;;;18.70;83.90;;;;;;5053000;28;20667;-79
2021/04/12 09:33:09;;;;;;;6.45;1.52;;;17.70;87.70;;;;;;5092496;28;20197;-79
2021/04/12 09:35:57;;;;;;;5.00;1.55;;;19.00;83.20;;;;;;5098724;28;20170;-78
2021/04/12 09:39:00;;;;;;;2.15;1.30;;;20.20;82.10;;;;;;5096460;28;20272;-79
2021/04/12 09:41:58;;;;;;;3.38;1.20;;;22.20;79.00;;;;;;5110914;28;20644;-78
2021/04/12 09:44:57;;;;;;;4.43;1.23;;;23.20;77.80;;;;;;5115766;28;20173;-77
2021/04/12 09:47:44;;;;;;;4.60;1.73;;;24.00;76.00;;;;;;5118094;28;20235;-77
2021/04/12 09:50:44;;;;;;;4.05;1.20;;;24.10;74.80;;;;;;5118892;28;20169;-77
2021/04/12 09:53:37;;;;;;;3.45;1.65;;;23.60;71.90;;;;;;5115041;28;20181;-81
2021/04/12 09:56:18;;;;;;;5.47;1.58;;;23.40;74.50;;;;;;5115466;28;20181;-80
2021/04/12 09:59:13;;;;;;;3.38;1.95;;;21.70;76.40;;;;;;5113508;28;20254;-80
2021/04/12 10:02:05;;;;;;;2.72;1.60;;;20.20;80.00;;;;;;5107164;28;20166;-79
2021/04/12 10:04:52;;;;;;;4.28;2.13;;;19.60;77.90;;;;;;5117106;28;20219;-79
2021/04/12 10:07:35;;;;;;;7.70;2.53;;;17.20;84.50;;;;;;5123576;27;20222;-79
2021/04/12 10:10:18;;;;;;;3.72;2.20;;;15.30;89.90;;;;;;5116429;27;20172;-79
2021/04/12 10:12:59;;;;;;;11.32;2.67;;;14.10;92.20;;;;;;5095962;28;20162;-79
2021/04/12 10:15:50;;;;;;;2.88;1.55;;;12.60;92.60;;;;;;5095948;28;20158;-80
2021/04/12 10:18:37;;;;;;;1.45;1.35;;;11.60;91.90;;;;;;5114331;28;20193;-81
2021/04/12 10:21:17;;;;;;;2.40;2.03;;;11.50;91.30;;;;;;5104681;28;20261;-79
2021/04/12 10:23:51;;;;;;;4.63;2.65;;;11.20;92.50;;;;;;5100265;28;20181;-79
2021/04/12 10:26:28;;;;;;;5.57;3.38;;;12.00;95.10;;;;;;5114457;28;20170;-80
2021/04/12 10:29:29;;;;;;;4.80;2.92;;;14.90;93.50;;;;;;5099413;28;20197;-80
2021/04/12 10:32:06;;;;;;;5.97;2.53;;;18.50;91.10;;;;;;5089408;28;20193;-79
2021/04/12 10:34:43;;;;;;;2.10;1.67;;;22.20;82.10;;;;;;5130289;27;20626;-79
2021/04/12 10:37:42;;;;;;;3.50;1.75;;;22.20;80.50;;;;;;5129554;27;20184;-79
2021/04/12 10:40:38;;;;;;;1.80;1.70;;;21.60;79.70;;;;;;5114663;28;20173;-79
2021/04/12 10:43:17;;;;;;;2.95;1.50;;;21.50;80.50;;;;;;5109364;28;20173;-79
2021/04/12 10:45:57;;;;;;;2.97;2.40;;;18.20;86.60;;;;;;5106878;28;20200;-79
2021/04/12 10:48:31;;;;;;;1.85;1.75;;;15.60;91.20;;;;;;5108089;28;20228;-77
2021/04/12 10:51:26;;;;;;;2.50;2.30;;;12.50;96.10;;;;;;5097900;28;20164;-78
2021/04/12 10:54:29;;;;;;;2.40;2.28;;;11.00;99.90;;;;;;5111103;28;20180;-78
2021/04/12 10:57:00;;;;;;;2.70;2.50;;;10.10;99.90;;;;;;5111743;28;20545;-79
2021/04/12 11:00:02;;;;;;;3.28;2.83;;;9.10;99.90;;;;;;5113974;28;20645;-78
2021/04/12 11:03:02;;;;;;;4.40;3.20;;;8.30;99.90;;;;;;5110386;28;20188;-78
2021/04/12 11:05:29;;;;;;;3.78;3.38;;;7.80;99.90;;;;;;5106209;28;20216;-78
2021/04/12 11:08:14;;;;;;;5.13;2.75;;;10.20;99.90;;;;;;5094868;28;20177;-79
2021/04/12 11:10:54;;;;;;;2.78;2.40;;;14.70;99.90;;;;;;5111347;28;20526;-79
2021/04/12 11:13:20;;;;;;;2.35;2.10;;;17.20;99.90;;;;;;5110458;28;20279;-78
2021/04/12 11:15:48;;;;;;;2.90;2.60;;;16.40;99.90;;;;;;5092490;28;20287;-78
2021/04/12 11:18:24;;;;;;;3.50;2.75;;;14.40;99.90;;;;;;5093014;28;20219;-78
2021/04/12 11:21:18;;;;;;;4.45;3.13;;;13.40;99.90;;;;;;5109214;28;20200;-79
2021/04/12 11:24:02;;;;;;;3.42;3.13;;;12.80;99.90;;;;;;5097593;28;20174;-78
2021/04/12 11:26:34;;;;;;;3.92;3.38;;;12.00;99.90;;;;;;5112502;28;20169;-77
2021/04/12 11:29:24;;;;;;;6.28;3.88;;;11.20;99.90;;;;;;5106601;28;20178;-79
2021/04/12 11:32:11;;;;;;;4.80;4.20;;;10.80;99.90;;;;;;5110939;28;20186;-79
2021/04/12 11:34:51;;;;;;;5.53;5.03;;;10.30;99.90;;;;;;5110359;28;20214;-79
2021/04/12 11:37:57;;;;;;;8.05;5.60;;;10.00;99.90;;;;;;5104294;28;20185;-78
2021/04/12 11:40:29;;;;;;;5.88;5.38;;;9.60;99.90;;;;;;5088003;28;20251;-79
2021/04/12 11:43:06;;;;;;;8.38;6.38;;;9.70;99.90;;;;;;5108446;28;20173;-78
2021/04/12 11:45:57;;;;;;;5.82;5.43;;;10.40;99.90;;;;;;5112302;28;20260;-77
2021/04/12 11:48:46;;;;;;;8.02;5.90;;;11.60;99.90;;;;;;5097551;28;20543;-78
2021/04/12 11:51:23;;;;;;;5.72;4.68;;;13.90;99.90;;;;;;5109929;28;20201;-80
2021/04/12 11:53:55;;;;;;;5.35;4.28;;;16.30;99.90;;;;;;5112380;28;20191;-81
2021/04/12 11:56:28;;;;;;;4.47;3.97;;;18.40;99.90;;;;;;5111377;28;20169;-79
2021/04/12 11:59:10;;;;;;;5.38;3.92;;;19.50;99.90;;;;;;5111395;28;20585;-79
2021/04/12 12:01:52;;;;;;;5.45;4.97;;;18.00;99.90;;;;;;5108849;28;20166;-79
2021/04/12 12:04:18;;;;;;;6.43;5.10;;;16.10;99.90;;;;;;5113038;28;20172;-79
2021/04/12 12:06:52;;;;;;;6.70;5.10;;;14.70;99.90;;;;;;5113382;28;20169;-79
2021/04/12 12:09:39;;;;;;;4.53;3.95;;;13.90;99.90;;;;;;5097016;28;20237;-79
2021/04/12 12:12:25;;;;;;;4.72;4.18;;;13.50;99.90;;;;;;5106027;28;20264;-79
2021/04/12 12:15:16;;;;;;;5.53;4.97;;;13.50;99.90;;;;;;5113713;28;20177;-79
2021/04/12 12:18:11;;;;;;;5.10;4.65;;;13.30;99.90;;;;;;5084795;28;20521;-78
2021/04/12 12:20:49;;;;;;;3.83;3.40;;;13.40;99.90;;;;;;5102343;28;20174;-79
2021/04/12 12:23:43;;;;;;;4.20;3.80;;;15.20;99.90;;;;;;5097028;28;20284;-79
2021/04/12 12:26:34;;;;;;;9.30;3.42;;;16.30;99.90;;;;;;5097173;28;20162;-80
2021/04/12 12:29:24;;;;;;;3.83;3.42;;;19.20;99.90;;;;;;5092134;28;20653;-79
2021/04/12 12:32:14;;;;;;;4.60;3.22;;;20.60;99.60;;;;;;5109626;28;20247;-78
2021/04/12 12:34:46;;;;;;;3.30;3.00;;;22.00;96.50;;;;;;5104189;28;20178;-79
2021/04/12 12:37:26;;;;;;;3.35;2.90;;;21.30;93.30;;;;;;5110555;28;20173;-78
2021/04/12 12:39:56;;;;;;;6.32;2.95;;;20.50;95.20;;;;;;5117108;28;20641;-78
2021/04/12 12:42:38;;;;;;;2.90;2.70;;;19.60;96.90;;;;;;5114788;28;20195;-77
2021/04/12 12:45:22;;;;;;;3.42;3.13;;;18.80;95.40;;;;;;5101055;28;20170;-79
2021/04/12 12:47:50;;;;;;;4.13;2.78;;;18.80;94.50;;;;;;5128867;27;20265;-77
2021/04/12 12:50:29;;;;;;;3.55;3.22;;;18.00;95.90;;;;;;5113155;28;20182;-77
2021/04/12 12:53:09;;;;;;;6.80;3.95;;;16.70;97.40;;;;;;5112837;28;20205;-78
2021/04/12 12:55:43;;;;;;;4.45;3.55;;;15.20;98.10;;;;;;5112339;28;20185;-77
2021/04/12 12:58:16;;;;;;;4.50;4.10;;;13.70;99.90;;;;;;5115361;28;20192;-77
2021/04/12 13:00:48;;;;;;;6.60;3.42;;;13.00;99.90;;;;;;5133561;27;20197;-77
2021/04/12 13:03:49;;;;;;;4.03;3.65;;;12.00;99.90;;;;;;5113595;28;20173;-77
2021/04/12 13:06:26;;;;;;;4.88;4.05;;;11.30;99.90;;;;;;5094721;28;20521;-77
2021/04/12 13:08:58;;;;;;;5.70;4.32;;;10.90;99.90;;;;;;5115546;28;20669;-79
2021/04/12 13:11:46;;;;;;;4.75;4.43;;;10.80;99.90;;;;;;5116432;28;20486;-78
2021/04/12 13:14:33;;;;;;;7.38;4.85;;;10.70;99.90;;;;;;5114013;28;20165;-78
2021/04/12 13:17:14;;;;;;;6.68;4.75;;;10.80;99.90;;;;;;5113491;28;20186;-79
2021/04/12 13:19:49;;;;;;;6.25;5.22;;;10.80;99.90;;;;;;5110754;28;20240;-78
2021/04/12 13:22:21;;;;;;;6.53;5.38;;;11.00;99.90;;;;;;5108346;28;20623;-79
2021/04/12 13:24:47;;;;;;;10.75;4.95;;;11.20;99.90;;;;;;5116358;28;20210;-80
2021/04/12 13:27:17;;;;;;;3.85;3.53;;;11.10;99.90;;;;;;5115404;28;20252;-79
2021/04/12 13:29:48;;;;;;;6.82;3.47;;;10.90;99.90;;;;;;5115808;28;20196;-79
2021/04/12 13:32:18;;;;;;;3.40;2.60;;;10.50;99.90;;;;;;5116227;28;20263;-78
2021/04/12 13:35:01;;;;;;;6.15;3.55;;;10.00;99.90;;;;;;5115865;28;20171;-79
2021/04/12 13:37:32;;;;;;;3.78;2.90;;;9.90;99.90;;;;;;5115916;28;20169;-80
2021/04/12 13:40:13;;;;;;;3.30;2.75;;;9.90;99.90;;;;;;5115822;28;20201;-79
2021/04/12 13:42:50;;;;;;;3.25;2.95;;;9.80;99.90;;;;;;5113959;28;20173;-78
2021/04/12 13:45:32;;;;;;;3.00;2.70;;;9.70;99.90;;;;;;5116140;28;20157;-80
2021/04/12 13:48:23;;;;;;;8.57;3.42;;;9.60;99.90;;;;;;5113954;28;20169;-79
2021/04/12 13:50:49;;;;;;;8.68;2.88;;;9.80;99.90;;;;;;5114470;28;20608;-79
2021/04/12 13:53:22;;;;;;;4.13;3.45;;;10.20;99.90;;;;;;5114572;28;20169;-79
2021/04/12 13:56:01;;;;;;;4.88;3.50;;;10.50;99.90;;;;;;5115500;28;20318;-79
2021/04/12 13:58:42;;;;;;;3.92;3.42;;;10.60;99.90;;;;;;5113871;28;20193;-79
2021/04/12 14:01:16;;;;;;;5.13;4.22;;;10.70;99.90;;;;;;5114218;28;20165;-79
2021/04/12 14:03:58;;;;;;;7.03;3.70;;;11.00;99.90;;;;;;5115288;28;20174;-80
2021/04/12 14:06:36;;;;;;;6.47;3.88;;;11.30;99.90;;;;;;5114138;28;20165;-80
2021/04/12 14:09:27;;;;;;;3.60;3.28;;;11.50;99.90;;;;;;5115607;28;20157;-80
2021/04/12 14:11:55;;;;;;;4.13;3.38;;;11.80;99.90;;;;;;5114984;28;20158;-80
2021/04/12 14:14:28;;;;;;;3.53;3.30;;;12.10;99.90;;;;;;5113966;28;20209;-80
2021/04/12 14:17:26;;;;;;;3.58;3.28;;;12.30;99.90;;;;;;5114132;28;20165;-79
2021/04/12 14:19:54;;;;;;;4.70;3.30;;;12.30;99.90;;;;;;5109479;28;20193;-79
2021/04/12 14:22:28;;;;;;;9.50;3.55;;;12.30;99.90;;;;;;5113240;28;20169;-78
2021/04/12 14:25:03;;;;;;;6.90;4.30;;;12.40;99.90;;;;;;5114269;28;20168;-78
2021/04/12 14:27:29;;;;;;;4.68;4.28;;;12.20;99.90;;;;;;5113064;28;20165;-78